MMZC/ZCL METAR and TAF weather

Enter ICAO airport designator
Station Type Date Time Source
MMZC METAR 2021/09/20 03:40 UTC NOAA

MMZC 200340Z 00000KT 10SM SCT030 17/12 A3025 RMK 8/400


Station Type Date Time Source
MMZC Decoded METAR 2021/09/20 03:40 UTC NOAA

Zacatecas Airport, Mexico (MMZC) 22-54N 102-41W
Sep 19, 2021 - 11:40 PM EDT / 2021.09.20 0340 UTC
Wind: Calm:0
Visibility: 10 mile(s):0
Sky conditions: partly cloudy
Temperature: 62 F (17 C)
Dew Point: 53 F (12 C)
Relative Humidity: 72%
Pressure (altimeter): 30.25 in. Hg (1024 hPa)
ob: MMZC 200340Z 00000KT 10SM SCT030 17/12 A3025 RMK 8/400
cycle: 3

Station Type Date Time Source
MMZC TAF 2021/09/20 06:33 UTC NOAA

TAF MMZC 200331Z 2006/2112 00000KT P6SM SCT030 TX24/2022Z TN12/2012Z
FM201800 18010KT P6SM BKN030 PROB40 2021/2101 6SM -RA
FM210600 16005KT P6SM BKN030
TEMPO 2107/2111 6SM -RA

Example: see airport list